createdAt,value
2019-03-30T00:00:05.173Z,77.38
2019-03-30T00:01:05.163Z,77.55
2019-03-30T00:02:05.153Z,77.59
2019-03-30T00:03:05.165Z,77.38
2019-03-30T00:04:05.131Z,77.69
2019-03-30T00:05:05.137Z,77.48
2019-03-30T00:06:05.104Z,77.45
2019-03-30T00:07:05.095Z,77.69
2019-03-30T00:08:05.090Z,77.38
2019-03-30T00:09:05.073Z,77.59
2019-03-30T00:10:05.063Z,77.69
2019-03-30T00:11:05.070Z,77.69
2019-03-30T00:12:05.039Z,76.97
2019-03-30T00:13:05.026Z,78.00
2019-03-30T00:14:05.020Z,77.83
2019-03-30T00:15:05.030Z,78.24
2019-03-30T00:16:04.994Z,78.24
2019-03-30T00:17:04.996Z,78.55
2019-03-30T00:18:04.969Z,78.55
2019-03-30T00:19:04.962Z,78.55
2019-03-30T00:20:04.952Z,77.94
2019-03-30T00:21:04.937Z,77.73
2019-03-30T00:22:04.924Z,77.62
2019-03-30T00:23:04.928Z,77.59
2019-03-30T00:24:04.908Z,77.59
2019-03-30T00:25:04.890Z,77.52
2019-03-30T00:26:04.878Z,78.04
2019-03-30T00:27:04.874Z,78.66
2019-03-30T00:28:04.856Z,78.86
2019-03-30T00:29:04.865Z,78.90
2019-03-30T00:30:04.861Z,78.69
2019-03-30T00:31:04.837Z,79.04
2019-03-30T00:32:04.810Z,79.76
2019-03-30T00:33:04.800Z,80.28
2019-03-30T00:34:04.787Z,80.38
2019-03-30T00:35:04.793Z,80.38
2019-03-30T00:36:04.771Z,80.93
2019-03-30T00:37:04.760Z,81.04
2019-03-30T00:38:04.745Z,81.14
2019-03-30T00:39:04.739Z,81.24
2019-03-30T00:40:04.727Z,81.04
2019-03-30T00:41:04.735Z,81.35
2019-03-30T00:42:04.701Z,81.07
2019-03-30T00:43:04.690Z,80.97
2019-03-30T00:44:04.676Z,80.87
2019-03-30T00:45:04.664Z,80.83
2019-03-30T00:46:04.658Z,81.24
2019-03-30T00:47:04.668Z,80.62
2019-03-30T00:48:04.635Z,81.10
2019-03-30T00:49:04.629Z,81.14
2019-03-30T00:50:04.617Z,81.00
2019-03-30T00:51:04.602Z,80.79
2019-03-30T00:52:04.596Z,80.38
2019-03-30T00:53:04.596Z,80.07
2019-03-30T00:54:04.570Z,80.04
2019-03-30T00:55:04.559Z,79.72
2019-03-30T00:56:04.615Z,79.72
2019-03-30T00:57:04.540Z,79.72
2019-03-30T00:58:04.528Z,79.72
2019-03-30T00:59:04.556Z,79.93
2019-03-30T01:00:04.510Z,80.14
2019-03-30T01:01:04.508Z,80.18
2019-03-30T01:02:04.487Z,79.86
2019-03-30T01:03:04.475Z,79.83
2019-03-30T01:04:04.474Z,79.76
2019-03-30T01:05:04.469Z,79.86
2019-03-30T01:06:04.442Z,79.76
2019-03-30T01:07:04.441Z,80.07
2019-03-30T01:08:04.420Z,79.93
2019-03-30T01:09:04.414Z,79.93
2019-03-30T01:10:04.397Z,79.93
2019-03-30T01:11:04.404Z,79.41
2019-03-30T01:12:04.382Z,79.21
2019-03-30T01:13:04.362Z,79.00
2019-03-30T01:14:04.353Z,79.11
2019-03-30T01:15:04.344Z,79.00
2019-03-30T01:16:04.330Z,78.90
2019-03-30T01:17:04.346Z,79.11
2019-03-30T01:18:04.310Z,78.80
2019-03-30T01:19:04.295Z,79.21
2019-03-30T01:20:04.285Z,78.90
2019-03-30T01:21:04.285Z,79.14
2019-03-30T01:22:04.265Z,79.04
2019-03-30T01:23:04.278Z,80.28
2019-03-30T01:24:04.243Z,79.35
2019-03-30T01:25:04.234Z,79.76
2019-03-30T01:26:04.219Z,79.97
2019-03-30T01:27:04.210Z,79.76
2019-03-30T01:28:04.200Z,80.18
2019-03-30T01:29:04.200Z,80.32
2019-03-30T01:30:04.178Z,80.21
2019-03-30T01:31:04.169Z,81.04
2019-03-30T01:32:04.158Z,81.14
2019-03-30T01:33:04.141Z,81.28
2019-03-30T01:34:04.137Z,81.59
2019-03-30T01:35:04.169Z,81.28
2019-03-30T01:36:04.106Z,81.59
2019-03-30T01:37:04.097Z,81.80
2019-03-30T01:38:04.083Z,81.49
2019-03-30T01:39:07.115Z,81.80
2019-03-30T01:40:04.063Z,81.80
2019-03-30T01:41:04.069Z,81.70
2019-03-30T01:42:04.064Z,81.70
2019-03-30T01:43:04.030Z,80.93
2019-03-30T01:44:04.020Z,81.56
2019-03-30T01:45:04.004Z,80.83
2019-03-30T01:46:03.993Z,80.93
2019-03-30T01:47:04.000Z,80.73
2019-03-30T01:48:03.971Z,81.04
2019-03-30T01:49:03.959Z,80.83
2019-03-30T01:50:16.707Z,80.83
2019-03-30T01:51:04.935Z,80.73
2019-03-30T01:52:03.934Z,80.93
2019-03-30T01:53:03.941Z,80.83
2019-03-30T01:54:03.920Z,81.18
2019-03-30T01:55:03.895Z,80.97
2019-03-30T01:56:03.894Z,80.97
2019-03-30T01:57:03.880Z,81.59
2019-03-30T01:58:03.867Z,81.18
2019-03-30T01:59:03.872Z,81.07
2019-03-30T02:00:03.845Z,81.18
2019-03-30T02:01:03.837Z,81.38
2019-03-30T02:02:03.829Z,81.18
2019-03-30T02:03:03.820Z,81.28
2019-03-30T02:04:03.810Z,80.83
2019-03-30T02:05:03.810Z,81.24
2019-03-30T02:06:03.786Z,80.76
2019-03-30T02:07:03.779Z,81.18
2019-03-30T02:08:03.768Z,81.28
2019-03-30T02:09:03.751Z,80.97
2019-03-30T02:10:03.746Z,81.38
2019-03-30T02:11:03.750Z,81.28
2019-03-30T02:12:03.725Z,80.76
2019-03-30T02:13:03.710Z,81.18
2019-03-30T02:14:03.702Z,81.28
2019-03-30T02:15:03.692Z,81.28
2019-03-30T02:16:03.717Z,81.38
2019-03-30T02:17:03.682Z,81.07
2019-03-30T02:18:03.658Z,81.07
2019-03-30T02:19:03.645Z,81.38
2019-03-30T02:20:03.637Z,81.49
2019-03-30T02:21:03.626Z,81.18
2019-03-30T02:22:03.619Z,81.49
2019-03-30T02:23:03.641Z,81.07
2019-03-30T02:24:03.595Z,81.49
2019-03-30T02:25:03.586Z,81.28
2019-03-30T02:26:03.585Z,81.28
2019-03-30T02:27:03.575Z,81.80
2019-03-30T02:28:06.752Z,81.14
2019-03-30T02:29:03.572Z,80.87
2019-03-30T02:30:03.535Z,81.38
2019-03-30T02:31:03.536Z,81.38
2019-03-30T02:32:03.521Z,81.49
2019-03-30T02:33:03.503Z,81.07
2019-03-30T02:34:03.498Z,81.28
2019-03-30T02:35:03.525Z,81.73
2019-03-30T02:36:03.475Z,81.42
2019-03-30T02:37:03.462Z,81.73
2019-03-30T02:38:03.456Z,82.35
2019-03-30T02:39:03.443Z,82.39
2019-03-30T02:40:03.434Z,82.39
2019-03-30T02:41:03.445Z,83.39
2019-03-30T02:42:03.421Z,82.66
2019-03-30T02:43:03.432Z,83.32
2019-03-30T02:44:03.388Z,83.28
2019-03-30T02:45:03.378Z,83.53
2019-03-30T02:46:03.385Z,83.28
2019-03-30T02:47:03.377Z,82.76
2019-03-30T02:48:03.347Z,82.87
2019-03-30T02:49:03.347Z,82.97
2019-03-30T02:50:03.327Z,82.73
2019-03-30T02:51:03.317Z,82.35
2019-03-30T02:52:03.305Z,82.45
2019-03-30T02:53:03.312Z,82.25
2019-03-30T02:54:03.286Z,82.15
2019-03-30T02:55:03.270Z,81.94
2019-03-30T02:56:03.271Z,81.49
2019-03-30T02:57:03.264Z,81.59
2019-03-30T02:58:03.241Z,81.63
2019-03-30T02:59:03.256Z,81.32
2019-03-30T03:00:03.222Z,81.90
2019-03-30T03:01:03.213Z,81.38
2019-03-30T03:02:03.207Z,81.59
2019-03-30T03:03:03.189Z,81.80
2019-03-30T03:04:03.205Z,81.63
2019-03-30T03:05:03.204Z,82.45
2019-03-30T03:06:03.160Z,82.29
2019-03-30T03:07:03.152Z,83.32
2019-03-30T03:08:03.135Z,83.25
2019-03-30T03:09:03.147Z,83.98
2019-03-30T03:10:03.128Z,84.22
2019-03-30T03:11:03.131Z,84.22
2019-03-30T03:12:03.097Z,84.43
2019-03-30T03:13:03.095Z,85.50
2019-03-30T03:14:03.095Z,85.19
2019-03-30T03:15:03.061Z,84.99
2019-03-30T03:16:03.053Z,85.55
2019-03-30T03:17:03.064Z,86.89
2019-03-30T03:18:03.045Z,87.45
2019-03-30T03:19:03.033Z,86.93
2019-03-30T03:20:03.017Z,87.04
2019-03-30T03:21:07.815Z,86.93
2019-03-30T03:22:04.009Z,87.90
2019-03-30T03:23:02.992Z,87.76
2019-03-30T03:24:02.971Z,88.32
2019-03-30T03:25:02.966Z,88.73
2019-03-30T03:26:02.980Z,89.11
2019-03-30T03:27:02.938Z,89.38
2019-03-30T03:28:02.946Z,88.65
2019-03-30T03:29:02.927Z,88.65
2019-03-30T03:30:02.914Z,88.45
2019-03-30T03:31:02.903Z,87.93
2019-03-30T03:32:02.901Z,87.76
2019-03-30T03:33:02.884Z,87.72
2019-03-30T03:34:02.910Z,88.03
2019-03-30T03:35:02.871Z,87.72
2019-03-30T03:36:02.850Z,87.06
2019-03-30T03:37:02.838Z,87.06
2019-03-30T03:38:02.830Z,86.85
2019-03-30T03:39:02.819Z,87.51
2019-03-30T03:40:02.828Z,86.68
2019-03-30T03:41:02.832Z,86.79
2019-03-30T03:42:02.797Z,86.93
2019-03-30T03:43:02.788Z,87.45
2019-03-30T03:44:02.771Z,87.76
2019-03-30T03:45:02.753Z,88.28
2019-03-30T03:46:02.771Z,87.76
2019-03-30T03:47:02.740Z,87.76
2019-03-30T03:48:02.727Z,88.07
2019-03-30T03:49:02.712Z,87.72
2019-03-30T03:50:02.707Z,87.99
2019-03-30T03:51:02.695Z,87.06
2019-03-30T03:52:02.704Z,87.06
2019-03-30T03:53:02.673Z,87.37
2019-03-30T03:54:02.680Z,86.19
2019-03-30T03:55:02.674Z,85.88
2019-03-30T03:56:02.642Z,85.36
2019-03-30T03:57:02.632Z,84.60
2019-03-30T03:58:02.645Z,84.29
2019-03-30T03:59:02.627Z,84.08
2019-03-30T04:00:02.601Z,83.56
2019-03-30T04:01:02.597Z,83.77
2019-03-30T04:02:02.579Z,83.56
2019-03-30T04:03:02.574Z,83.77
2019-03-30T04:04:02.580Z,83.42
2019-03-30T04:05:02.550Z,83.46
2019-03-30T04:06:02.537Z,83.32
2019-03-30T04:07:02.536Z,83.56
2019-03-30T04:08:02.537Z,83.46
2019-03-30T04:09:02.515Z,83.67
2019-03-30T04:10:02.515Z,83.67
2019-03-30T04:11:02.488Z,83.67
2019-03-30T04:12:02.474Z,84.05
2019-03-30T04:13:06.771Z,84.08
2019-03-30T04:14:02.473Z,83.98
2019-03-30T04:15:02.446Z,84.43
2019-03-30T04:16:02.453Z,84.39
2019-03-30T04:17:02.458Z,84.60
2019-03-30T04:18:02.419Z,84.60
2019-03-30T04:19:02.411Z,84.19
2019-03-30T04:20:02.398Z,83.98
2019-03-30T04:21:02.389Z,84.39
2019-03-30T04:22:02.415Z,83.98
2019-03-30T04:23:02.374Z,83.98
2019-03-30T04:24:02.366Z,84.08
2019-03-30T04:25:02.364Z,83.67
2019-03-30T04:26:02.334Z,83.56
2019-03-30T04:27:02.358Z,83.56
2019-03-30T04:28:02.335Z,83.67
2019-03-30T04:29:02.304Z,82.90
2019-03-30T04:30:02.299Z,83.32
2019-03-30T04:31:02.302Z,83.32
2019-03-30T04:32:02.378Z,83.42
2019-03-30T04:33:02.278Z,82.90
2019-03-30T04:34:02.269Z,82.90
2019-03-30T04:35:02.239Z,82.80
2019-03-30T04:36:02.235Z,82.70
2019-03-30T04:37:02.249Z,83.01
2019-03-30T04:38:02.211Z,82.80
2019-03-30T04:39:02.202Z,83.01
2019-03-30T04:40:02.204Z,83.11
2019-03-30T04:41:02.179Z,83.32
2019-03-30T04:42:02.173Z,83.42
2019-03-30T04:43:02.158Z,83.53
2019-03-30T04:44:02.167Z,83.36
2019-03-30T04:45:02.142Z,83.36
2019-03-30T04:46:02.144Z,83.67
2019-03-30T04:47:02.113Z,83.05
2019-03-30T04:48:02.108Z,83.56
2019-03-30T04:49:02.092Z,83.05
2019-03-30T04:50:02.090Z,83.67
2019-03-30T04:51:02.071Z,83.67
2019-03-30T04:52:02.078Z,83.15
2019-03-30T04:53:02.052Z,82.95
2019-03-30T04:54:02.052Z,83.15
2019-03-30T04:55:02.030Z,83.46
2019-03-30T04:56:02.029Z,83.46
2019-03-30T04:57:02.014Z,83.56
2019-03-30T04:58:02.026Z,83.71
2019-03-30T04:59:02.017Z,83.46
2019-03-30T05:00:01.982Z,83.81
2019-03-30T05:01:01.972Z,83.81
2019-03-30T05:02:01.956Z,84.33
2019-03-30T05:03:01.969Z,84.43
2019-03-30T05:04:01.958Z,84.68
2019-03-30T05:05:01.932Z,85.50
2019-03-30T05:06:01.919Z,84.95
2019-03-30T05:07:01.907Z,85.05
2019-03-30T05:08:01.908Z,84.53
2019-03-30T05:09:01.889Z,84.53
2019-03-30T05:10:01.897Z,84.43
2019-03-30T05:11:01.865Z,84.33
2019-03-30T05:12:01.859Z,85.36
2019-03-30T05:13:01.851Z,85.71
2019-03-30T05:14:01.833Z,85.30
2019-03-30T05:15:01.826Z,85.92
2019-03-30T05:16:01.829Z,86.09
2019-03-30T05:17:01.806Z,85.30
2019-03-30T05:18:01.796Z,85.19
2019-03-30T05:19:01.782Z,85.09
2019-03-30T05:20:01.787Z,85.61
2019-03-30T05:21:01.758Z,85.26
2019-03-30T05:22:12.116Z,85.19
2019-03-30T05:23:02.740Z,85.19
2019-03-30T05:24:01.731Z,85.71
2019-03-30T05:25:01.722Z,85.40
2019-03-30T05:26:01.709Z,85.88
2019-03-30T05:27:01.697Z,85.05
2019-03-30T05:28:01.705Z,84.43
2019-03-30T05:29:01.683Z,84.74
2019-03-30T05:30:01.673Z,84.22
2019-03-30T05:31:01.659Z,84.43
2019-03-30T05:32:01.647Z,84.39
2019-03-30T05:33:06.085Z,83.77
2019-03-30T05:34:01.643Z,83.98
2019-03-30T05:35:01.620Z,83.67
2019-03-30T05:36:01.620Z,83.46
2019-03-30T05:37:01.596Z,83.67
2019-03-30T05:38:01.714Z,83.67
2019-03-30T05:39:01.583Z,83.46
2019-03-30T05:40:01.606Z,83.32
2019-03-30T05:41:01.553Z,82.60
2019-03-30T05:42:01.542Z,83.32
2019-03-30T05:43:01.538Z,83.11
2019-03-30T05:44:01.524Z,82.80
2019-03-30T05:45:01.512Z,82.50
2019-03-30T05:46:01.521Z,82.60
2019-03-30T05:47:01.491Z,82.56
2019-03-30T05:48:01.496Z,82.15
2019-03-30T05:49:01.477Z,82.45
2019-03-30T05:50:01.474Z,81.84
2019-03-30T05:51:01.456Z,81.84
2019-03-30T05:52:01.455Z,81.52
2019-03-30T05:53:01.459Z,81.01
2019-03-30T05:54:01.424Z,81.28
2019-03-30T05:55:01.420Z,80.87
2019-03-30T05:56:01.460Z,81.38
2019-03-30T05:57:01.394Z,80.76
2019-03-30T05:58:01.411Z,80.21
2019-03-30T05:59:01.369Z,80.00
2019-03-30T06:00:01.363Z,80.07
2019-03-30T06:01:01.351Z,79.86
2019-03-30T06:02:01.358Z,79.04
2019-03-30T06:03:01.326Z,79.04
2019-03-30T06:04:01.331Z,78.83
2019-03-30T06:05:03.319Z,78.90
2019-03-30T06:06:01.296Z,78.59
2019-03-30T06:07:01.289Z,78.38
2019-03-30T06:08:01.274Z,78.34
2019-03-30T06:09:01.264Z,78.34
2019-03-30T06:10:01.270Z,77.73
2019-03-30T06:11:01.278Z,77.01
2019-03-30T06:12:01.233Z,76.90
2019-03-30T06:13:01.217Z,76.39
2019-03-30T06:14:01.206Z,76.29
2019-03-30T06:15:01.203Z,76.70
2019-03-30T06:16:01.202Z,76.97
2019-03-30T06:17:01.178Z,76.46
2019-03-30T06:18:01.179Z,76.35
2019-03-30T06:19:01.150Z,75.94
2019-03-30T06:20:01.139Z,76.15
2019-03-30T06:21:01.133Z,76.11
2019-03-30T06:22:01.227Z,76.15
2019-03-30T06:23:01.108Z,75.63
2019-03-30T06:24:01.094Z,75.84
2019-03-30T06:25:01.106Z,75.29
2019-03-30T06:26:01.076Z,75.39
2019-03-30T06:27:01.090Z,75.29
2019-03-30T06:28:01.071Z,74.98
2019-03-30T06:29:01.037Z,75.05
2019-03-30T06:30:01.056Z,74.84
2019-03-30T06:31:01.018Z,74.95
2019-03-30T06:32:01.006Z,74.84
2019-03-30T06:33:00.991Z,74.74
2019-03-30T06:34:01.001Z,74.50
2019-03-30T06:35:00.968Z,74.19
2019-03-30T06:36:00.967Z,73.88
2019-03-30T06:37:00.970Z,73.98
2019-03-30T06:38:00.937Z,73.74
2019-03-30T06:39:00.930Z,73.09
2019-03-30T06:40:00.947Z,72.99
2019-03-30T06:41:00.897Z,72.27
2019-03-30T06:42:00.890Z,71.83
2019-03-30T06:43:00.903Z,70.56
2019-03-30T06:44:00.871Z,70.29
2019-03-30T06:45:00.854Z,69.30
2019-03-30T06:46:00.857Z,67.08
2019-03-30T06:47:00.832Z,65.46
2019-03-30T06:48:00.823Z,64.10
2019-03-30T06:49:00.807Z,62.58
2019-03-30T06:50:00.812Z,61.22
2019-03-30T06:51:00.787Z,59.33
2019-03-30T06:52:00.791Z,59.10
2019-03-30T06:53:00.759Z,57.78
2019-03-30T06:54:00.751Z,57.34
2019-03-30T06:55:00.737Z,57.21
2019-03-30T06:56:00.735Z,57.01
2019-03-30T06:57:00.714Z,57.08
2019-03-30T06:58:00.724Z,56.37
2019-03-30T06:59:00.693Z,56.34
2019-03-30T07:00:00.686Z,55.30
2019-03-30T07:01:00.672Z,55.66
2019-03-30T07:02:00.656Z,55.99
2019-03-30T07:03:00.652Z,56.50
2019-03-30T07:04:00.675Z,55.76
2019-03-30T07:05:00.632Z,55.96
2019-03-30T07:06:00.611Z,54.90
2019-03-30T07:07:00.604Z,54.87
2019-03-30T07:08:00.589Z,53.52
2019-03-30T07:09:00.602Z,53.19
2019-03-30T07:10:00.596Z,52.38
2019-03-30T07:11:00.558Z,52.00
2019-03-30T07:12:00.548Z,54.08
2019-03-30T07:13:00.549Z,54.72
2019-03-30T07:14:00.543Z,54.79
2019-03-30T07:15:00.512Z,53.96
2019-03-30T07:16:00.518Z,52.18
2019-03-30T07:17:01.939Z,51.54
2019-03-30T07:18:00.481Z,51.85
2019-03-30T07:19:00.466Z,51.75
2019-03-30T07:20:00.515Z,52.36
2019-03-30T07:21:00.444Z,52.69
2019-03-30T07:22:00.447Z,52.81
2019-03-30T07:23:11.279Z,53.96
2019-03-30T07:24:01.413Z,54.21
2019-03-30T07:25:00.408Z,55.12
2019-03-30T07:26:00.390Z,55.73
2019-03-30T07:27:00.383Z,55.25
2019-03-30T07:28:00.394Z,56.07
2019-03-30T07:29:00.351Z,55.12
2019-03-30T07:30:00.420Z,55.02
2019-03-30T07:31:00.350Z,54.92
2019-03-30T07:32:00.354Z,55.12
2019-03-30T07:33:00.309Z,55.43
2019-03-30T07:34:00.374Z,54.74
2019-03-30T07:35:00.428Z,56.34
2019-03-30T07:36:00.294Z,54.79
2019-03-30T07:37:00.270Z,55.60
2019-03-30T07:38:00.285Z,55.05
2019-03-30T07:39:00.249Z,53.30
2019-03-30T07:40:00.366Z,54.13
2019-03-30T07:41:00.219Z,54.54
2019-03-30T07:42:00.240Z,55.12
2019-03-30T07:43:00.202Z,54.90
2019-03-30T07:44:00.231Z,52.03
2019-03-30T07:45:00.352Z,52.44
2019-03-30T07:46:00.180Z,53.45
2019-03-30T07:47:00.152Z,51.90
2019-03-30T07:48:00.159Z,50.99
2019-03-30T07:49:00.131Z,52.33
2019-03-30T07:50:00.357Z,51.93
2019-03-30T07:51:00.105Z,52.71
2019-03-30T07:52:00.111Z,51.60
2019-03-30T07:53:00.086Z,52.08
2019-03-30T07:54:00.072Z,54.44
2019-03-30T07:55:00.097Z,54.31
2019-03-30T07:56:08.248Z,52.56
2019-03-30T07:57:06.218Z,52.05
2019-03-30T07:58:01.086Z,52.66
2019-03-30T07:59:00.033Z,51.39
2019-03-30T08:00:00.008Z,51.62
2019-03-30T08:01:00.006Z,51.93
2019-03-30T08:01:59.991Z,52.53
2019-03-30T08:02:59.991Z,52.00
2019-03-30T08:03:59.960Z,51.98
2019-03-30T08:04:59.950Z,50.38
2019-03-30T08:05:59.947Z,50.61
2019-03-30T08:06:59.929Z,51.32
2019-03-30T08:07:59.917Z,51.22
2019-03-30T08:08:59.922Z,50.71
2019-03-30T08:09:59.898Z,50.61
2019-03-30T08:10:59.891Z,50.35
2019-03-30T08:11:59.876Z,50.99
2019-03-30T08:12:59.861Z,50.96
2019-03-30T08:13:59.855Z,51.80
2019-03-30T08:14:59.870Z,51.29
2019-03-30T08:15:59.829Z,51.67
2019-03-30T08:16:59.815Z,51.39
2019-03-30T08:17:59.811Z,51.42
2019-03-30T08:18:59.801Z,51.93
2019-03-30T08:19:59.786Z,51.70
2019-03-30T08:20:59.791Z,51.70
2019-03-30T08:21:59.770Z,51.55
2019-03-30T08:22:59.759Z,50.63
2019-03-30T08:23:59.740Z,50.94
2019-03-30T08:24:59.726Z,50.31
2019-03-30T08:25:59.722Z,49.45
2019-03-30T08:26:59.729Z,49.96
2019-03-30T08:27:59.694Z,49.45
2019-03-30T08:28:59.689Z,49.66
2019-03-30T08:29:59.674Z,49.45
2019-03-30T08:30:59.670Z,50.01
2019-03-30T08:31:59.656Z,50.09
2019-03-30T08:32:59.656Z,49.54
2019-03-30T08:33:59.627Z,47.70
2019-03-30T08:34:59.627Z,46.01
2019-03-30T08:35:59.620Z,48.63
2019-03-30T08:36:59.606Z,47.09
2019-03-30T08:37:59.584Z,47.40
2019-03-30T08:38:59.594Z,47.88
2019-03-30T08:39:59.572Z,46.34
2019-03-30T08:40:59.550Z,47.43
2019-03-30T08:41:59.540Z,45.78
2019-03-30T08:42:59.532Z,43.84
2019-03-30T08:43:59.517Z,45.35
2019-03-30T08:44:59.526Z,44.24
2019-03-30T08:45:59.500Z,44.75
2019-03-30T08:46:59.484Z,44.63
2019-03-30T08:47:59.478Z,44.00
2019-03-30T08:48:59.472Z,42.84
2019-03-30T08:49:59.458Z,45.05
2019-03-30T08:50:59.459Z,44.75
2019-03-30T08:51:59.429Z,43.64
2019-03-30T08:52:59.445Z,44.47
2019-03-30T08:53:59.414Z,43.24
2019-03-30T08:54:59.403Z,44.15
2019-03-30T08:55:59.388Z,45.23
2019-03-30T08:56:59.396Z,42.40
2019-03-30T08:57:59.369Z,44.28
2019-03-30T08:58:59.361Z,42.96
2019-03-30T08:59:59.345Z,44.19
2019-03-30T09:00:59.331Z,45.65
2019-03-30T09:01:59.324Z,45.10
2019-03-30T09:02:59.327Z,43.58
2019-03-30T09:03:59.299Z,42.83
2019-03-30T09:04:59.294Z,42.83
2019-03-30T09:05:59.279Z,41.57
2019-03-30T09:06:59.274Z,43.16
2019-03-30T09:07:59.262Z,42.18
2019-03-30T09:08:59.268Z,42.74
2019-03-30T09:09:59.238Z,44.36
2019-03-30T09:10:59.227Z,43.82
2019-03-30T09:11:59.211Z,43.50
2019-03-30T09:12:59.206Z,41.39
2019-03-30T09:13:59.192Z,42.41
2019-03-30T09:14:59.253Z,44.20
2019-03-30T09:15:59.177Z,43.94
2019-03-30T09:16:59.888Z,42.11
2019-03-30T09:17:59.157Z,42.02
2019-03-30T09:18:59.137Z,43.68
2019-03-30T09:19:59.126Z,42.40
2019-03-30T09:20:59.140Z,42.30
2019-03-30T09:21:59.116Z,42.49
2019-03-30T09:22:59.097Z,41.67
2019-03-30T09:24:09.443Z,41.66
2019-03-30T09:25:00.074Z,42.03
2019-03-30T09:25:59.060Z,41.60
2019-03-30T09:26:59.071Z,40.59
2019-03-30T09:27:59.043Z,39.98
2019-03-30T09:28:59.035Z,42.05
2019-03-30T09:29:59.023Z,39.50
2019-03-30T09:30:59.010Z,41.38
2019-03-30T09:32:13.250Z,39.48
2019-03-30T09:33:00.037Z,39.22
2019-03-30T09:33:58.975Z,39.98
2019-03-30T09:34:58.973Z,39.95
2019-03-30T09:35:58.954Z,39.64
2019-03-30T09:36:58.949Z,38.56
2019-03-30T09:37:58.933Z,38.12
2019-03-30T09:38:58.939Z,37.02
2019-03-30T09:39:58.915Z,39.12
2019-03-30T09:40:58.903Z,37.76
2019-03-30T09:41:58.901Z,37.64
2019-03-30T09:42:58.885Z,38.34
2019-03-30T09:43:58.873Z,37.44
2019-03-30T09:44:58.881Z,36.46
2019-03-30T09:45:58.851Z,37.42
2019-03-30T09:46:58.845Z,38.74
2019-03-30T09:47:58.833Z,37.60
2019-03-30T09:48:58.818Z,39.42
2019-03-30T09:50:02.312Z,37.30
2019-03-30T09:50:58.817Z,37.34
2019-03-30T09:51:58.798Z,38.44
2019-03-30T09:52:58.789Z,37.44
2019-03-30T09:53:58.769Z,37.16
2019-03-30T09:54:58.770Z,36.86
2019-03-30T09:55:58.749Z,37.76
2019-03-30T09:56:58.752Z,37.54
2019-03-30T09:57:58.730Z,37.76
2019-03-30T09:58:58.726Z,36.22
2019-03-30T09:59:58.703Z,36.22
2019-03-30T10:00:58.701Z,36.24
2019-03-30T10:01:58.685Z,34.93
2019-03-30T10:02:58.694Z,37.12
2019-03-30T10:03:58.664Z,36.01
2019-03-30T10:04:58.654Z,35.42
2019-03-30T10:05:58.643Z,36.94
2019-03-30T10:06:58.636Z,36.02
2019-03-30T10:07:58.630Z,35.89
2019-03-30T10:08:58.637Z,35.89
2019-03-30T10:09:58.611Z,34.41
2019-03-30T10:10:58.620Z,36.13
2019-03-30T10:11:58.586Z,35.76
2019-03-30T10:12:58.574Z,35.74
2019-03-30T10:13:58.565Z,37.92
2019-03-30T10:14:58.567Z,37.23
2019-03-30T10:15:58.548Z,37.60
2019-03-30T10:16:58.541Z,34.41
2019-03-30T10:17:58.523Z,35.42
2019-03-30T10:18:58.513Z,35.63
2019-03-30T10:20:04.747Z,35.11
2019-03-30T10:20:59.507Z,35.79
2019-03-30T10:21:58.481Z,35.99
2019-03-30T10:22:58.474Z,35.89
2019-03-30T10:23:58.467Z,36.01
2019-03-30T10:24:58.692Z,34.81
2019-03-30T10:25:58.445Z,37.57
2019-03-30T10:26:58.445Z,35.56
2019-03-30T10:27:58.422Z,35.58
2019-03-30T10:28:58.413Z,36.11
2019-03-30T10:29:58.405Z,35.89
2019-03-30T10:30:58.390Z,34.99
2019-03-30T10:32:00.026Z,34.23
2019-03-30T10:32:58.388Z,35.74
2019-03-30T10:33:58.378Z,35.42
2019-03-30T10:34:58.352Z,36.76
2019-03-30T10:35:58.345Z,34.66
2019-03-30T10:36:58.329Z,36.63
2019-03-30T10:37:58.335Z,35.93
2019-03-30T10:38:58.330Z,34.93
2019-03-30T10:39:58.297Z,37.42
2019-03-30T10:40:58.289Z,35.41
2019-03-30T10:41:58.281Z,36.11
2019-03-30T10:42:58.272Z,35.41
2019-03-30T10:43:58.262Z,35.81
2019-03-30T10:44:58.262Z,36.11
2019-03-30T10:45:58.252Z,35.33
2019-03-30T10:46:58.247Z,36.44
2019-03-30T10:47:58.216Z,36.08
2019-03-30T10:48:58.217Z,39.04
2019-03-30T10:49:58.197Z,35.66
2019-03-30T10:50:58.224Z,36.64
2019-03-30T10:51:58.186Z,38.62
2019-03-30T10:52:58.167Z,35.72
2019-03-30T10:53:58.157Z,34.33
2019-03-30T10:54:58.146Z,36.52
2019-03-30T10:55:58.138Z,36.52
2019-03-30T10:56:58.149Z,36.13
2019-03-30T10:57:58.752Z,34.53
2019-03-30T10:58:58.106Z,36.13
2019-03-30T10:59:58.095Z,34.23
2019-03-30T11:00:58.088Z,36.02
2019-03-30T11:01:58.076Z,35.23
2019-03-30T11:02:58.081Z,35.72
2019-03-30T11:03:58.052Z,36.02
2019-03-30T11:04:58.047Z,34.91
2019-03-30T11:05:58.049Z,36.71
2019-03-30T11:06:58.024Z,36.80
2019-03-30T11:07:58.011Z,37.94
2019-03-30T11:08:58.036Z,35.53
2019-03-30T11:09:58.005Z,35.11
2019-03-30T11:10:57.988Z,35.93
2019-03-30T11:11:57.980Z,35.53
2019-03-30T11:12:57.965Z,35.44
2019-03-30T11:13:57.954Z,36.32
2019-03-30T11:14:57.960Z,36.86
2019-03-30T11:15:57.948Z,35.96
2019-03-30T11:16:57.923Z,34.96
2019-03-30T11:17:57.911Z,36.29
2019-03-30T11:18:57.903Z,37.13
2019-03-30T11:19:57.895Z,38.37
2019-03-30T11:20:57.896Z,40.19
2019-03-30T11:21:57.868Z,38.53
2019-03-30T11:22:57.872Z,39.03
2019-03-30T11:23:57.850Z,40.37
2019-03-30T11:25:07.368Z,39.88
2019-03-30T11:25:58.850Z,40.11
2019-03-30T11:26:57.817Z,42.03
2019-03-30T11:27:57.812Z,41.33
2019-03-30T11:28:57.793Z,41.95
2019-03-30T11:29:57.785Z,42.66
2019-03-30T11:30:57.769Z,41.45
2019-03-30T11:31:57.777Z,41.97
2019-03-30T11:32:57.751Z,41.65
2019-03-30T11:33:57.742Z,40.44
2019-03-30T11:34:57.726Z,42.47
2019-03-30T11:35:57.715Z,42.19
2019-03-30T11:36:57.704Z,42.78
2019-03-30T11:37:57.708Z,41.87
2019-03-30T11:38:57.705Z,42.27
2019-03-30T11:39:57.672Z,43.68
2019-03-30T11:40:57.660Z,42.15
2019-03-30T11:41:57.658Z,41.87
2019-03-30T11:42:57.651Z,43.18
2019-03-30T11:43:57.650Z,43.28
2019-03-30T11:44:57.614Z,44.39
2019-03-30T11:45:57.603Z,44.09
2019-03-30T11:46:57.597Z,42.98
2019-03-30T11:47:57.586Z,43.00
2019-03-30T11:48:57.573Z,42.50
2019-03-30T11:49:57.577Z,41.51
2019-03-30T11:50:57.551Z,42.01
2019-03-30T11:51:57.540Z,42.92
2019-03-30T11:52:57.530Z,42.82
2019-03-30T11:53:57.518Z,44.43
2019-03-30T11:54:57.505Z,43.32
2019-03-30T11:55:57.514Z,43.44
2019-03-30T11:56:57.505Z,43.74
2019-03-30T11:57:57.481Z,43.34
2019-03-30T11:58:57.464Z,43.95
2019-03-30T11:59:57.450Z,43.54
2019-03-30T12:00:57.443Z,43.54
2019-03-30T12:01:57.448Z,42.74
2019-03-30T12:02:57.426Z,42.74
2019-03-30T12:03:57.460Z,43.93
2019-03-30T12:04:57.395Z,43.52
2019-03-30T12:05:57.385Z,44.23
2019-03-30T12:06:57.377Z,43.34
2019-03-30T12:07:57.387Z,43.95
2019-03-30T12:08:57.354Z,44.15
2019-03-30T12:09:57.346Z,43.74
2019-03-30T12:10:57.331Z,43.34
2019-03-30T12:11:57.335Z,44.25
2019-03-30T12:12:57.308Z,43.37
2019-03-30T12:13:57.310Z,43.65
2019-03-30T12:14:57.301Z,44.05
2019-03-30T12:15:57.273Z,44.07
2019-03-30T12:16:57.265Z,42.84
2019-03-30T12:17:57.258Z,42.84
2019-03-30T12:18:57.238Z,43.14
2019-03-30T12:19:57.243Z,42.94
2019-03-30T12:20:57.222Z,43.44
2019-03-30T12:21:57.205Z,43.14
2019-03-30T12:22:57.193Z,44.85
2019-03-30T12:23:57.182Z,43.85
2019-03-30T12:24:57.169Z,44.25
2019-03-30T12:25:57.173Z,44.95
2019-03-30T12:26:57.152Z,42.94
2019-03-30T12:27:57.134Z,44.53
2019-03-30T12:28:57.130Z,42.82
2019-03-30T12:29:57.121Z,43.52
2019-03-30T12:30:57.106Z,42.82
2019-03-30T12:31:57.107Z,41.41
2019-03-30T12:32:57.096Z,42.94
2019-03-30T12:33:57.066Z,43.34
2019-03-30T12:34:57.059Z,42.64
2019-03-30T12:35:57.052Z,43.46
2019-03-30T12:36:57.032Z,43.16
2019-03-30T12:37:57.039Z,44.37
2019-03-30T12:38:57.040Z,42.35
2019-03-30T12:39:58.457Z,41.87
2019-03-30T12:40:56.992Z,43.69
2019-03-30T12:41:56.977Z,43.77
2019-03-30T12:42:56.967Z,44.70
2019-03-30T12:43:56.980Z,42.46
2019-03-30T12:44:56.948Z,41.55
2019-03-30T12:45:56.947Z,41.83
2019-03-30T12:46:56.922Z,40.82
2019-03-30T12:47:56.913Z,41.83
2019-03-30T12:48:56.916Z,41.85
2019-03-30T12:49:56.913Z,42.54
2019-03-30T12:50:56.880Z,40.74
2019-03-30T12:51:56.865Z,42.33